N17375 KUZA-KCRE
Flight info
| Callsign | N17375 |
|---|---|
| Flight time | N/A |
| Altitude | VFR/055 |
| Route | |
| Aircraft | C172/L-DOV/C |
Departure
| Time | N/A |
|---|---|
| Airport | Rock Hill - York County Airport (KUZA) |
Arrival
| Time | 2026-04-18 20:20 |
|---|---|
| Airport | Grand Strand Airport (KCRE) |
| Time | Latitude | Longitude | Altitude | Speed | Heading |
|---|---|---|---|---|---|
| 2026-04-18 19:13 | 35.11836 | -80.50175 | 4525 ft | 83 kts | 123° |
| 2026-04-18 19:13 | 35.11521 | -80.49619 | 4734 ft | 78 kts | 134° |
| 2026-04-18 19:13 | 35.11234 | -80.49056 | 4983 ft | 78 kts | 133° |
| 2026-04-18 19:13 | 35.10926 | -80.48498 | 5231 ft | 80 kts | 135° |
| 2026-04-18 19:14 | 35.10653 | -80.47915 | 5370 ft | 85 kts | 125° |
| 2026-04-18 19:14 | 35.10477 | -80.47195 | 5421 ft | 104 kts | 94° |
| 2026-04-18 19:14 | 35.10732 | -80.46330 | 5412 ft | 117 kts | 38° |
| 2026-04-18 19:14 | 35.11511 | -80.46199 | 5433 ft | 120 kts | 349° |
| 2026-04-18 19:15 | 35.12348 | -80.45931 | 5426 ft | 137 kts | 44° |
| 2026-04-18 19:15 | 35.12603 | -80.44889 | 5408 ft | 127 kts | 112° |
| 2026-04-18 19:15 | 35.12066 | -80.44173 | 5438 ft | 109 kts | 152° |
| 2026-04-18 19:15 | 35.11475 | -80.43624 | 5472 ft | 108 kts | 151° |
| 2026-04-18 19:16 | 35.10866 | -80.43084 | 5471 ft | 108 kts | 150° |
| 2026-04-18 19:16 | 35.10253 | -80.42539 | 5464 ft | 108 kts | 150° |
| 2026-04-18 19:16 | 35.09645 | -80.42005 | 5468 ft | 108 kts | 150° |
| 2026-04-18 19:16 | 35.09022 | -80.41458 | 5469 ft | 113 kts | 150° |
| 2026-04-18 19:17 | 35.08393 | -80.40912 | 5466 ft | 109 kts | 151° |
| 2026-04-18 19:17 | 35.07788 | -80.40379 | 5464 ft | 105 kts | 151° |
| 2026-04-18 19:17 | 35.07210 | -80.39849 | 5467 ft | 104 kts | 151° |
| 2026-04-18 19:17 | 35.06609 | -80.39309 | 5466 ft | 110 kts | 151° |
| 2026-04-18 19:18 | 35.05989 | -80.38761 | 5477 ft | 112 kts | 150° |
| 2026-04-18 19:18 | 35.05327 | -80.38202 | 5477 ft | 118 kts | 151° |
| 2026-04-18 19:18 | 35.04684 | -80.37652 | 5470 ft | 112 kts | 150° |
| 2026-04-18 19:18 | 35.04028 | -80.37170 | 5463 ft | 108 kts | 161° |
| 2026-04-18 19:19 | 35.03349 | -80.36783 | 5470 ft | 107 kts | 161° |
| 2026-04-18 19:19 | 35.02681 | -80.36390 | 5474 ft | 106 kts | 160° |
| 2026-04-18 19:19 | 35.01997 | -80.36003 | 5477 ft | 110 kts | 161° |
| 2026-04-18 19:19 | 35.01293 | -80.35602 | 5467 ft | 111 kts | 160° |
| 2026-04-18 19:20 | 35.00605 | -80.35207 | 5467 ft | 108 kts | 161° |
| 2026-04-18 19:20 | 34.99922 | -80.34800 | 5464 ft | 110 kts | 160° |
| 2026-04-18 19:20 | 34.99231 | -80.34391 | 5470 ft | 111 kts | 160° |
| 2026-04-18 19:20 | 34.98517 | -80.33989 | 5460 ft | 112 kts | 161° |
| 2026-04-18 19:21 | 34.97820 | -80.33587 | 5466 ft | 110 kts | 161° |
| 2026-04-18 19:21 | 34.97136 | -80.33176 | 5454 ft | 108 kts | 160° |
| 2026-04-18 19:21 | 34.96474 | -80.32780 | 5460 ft | 105 kts | 161° |
| 2026-04-18 19:21 | 34.95818 | -80.32390 | 5454 ft | 105 kts | 161° |
| 2026-04-18 19:22 | 34.95158 | -80.31993 | 5458 ft | 106 kts | 160° |
| 2026-04-18 19:22 | 34.94490 | -80.31604 | 5462 ft | 110 kts | 161° |
| 2026-04-18 19:22 | 34.93808 | -80.31211 | 5468 ft | 108 kts | 161° |
| 2026-04-18 19:22 | 34.93106 | -80.30791 | 5470 ft | 117 kts | 161° |
| 2026-04-18 19:23 | 34.92380 | -80.30360 | 5465 ft | 114 kts | 160° |
| 2026-04-18 19:23 | 34.91680 | -80.29953 | 5464 ft | 110 kts | 160° |
| 2026-04-18 19:23 | 34.91001 | -80.29560 | 5460 ft | 106 kts | 161° |
| 2026-04-18 19:23 | 34.90343 | -80.29176 | 5465 ft | 105 kts | 160° |
| 2026-04-18 19:24 | 34.89761 | -80.28651 | 5475 ft | 107 kts | 137° |
| 2026-04-18 19:24 | 34.89273 | -80.27970 | 5468 ft | 107 kts | 137° |
| 2026-04-18 19:24 | 34.88797 | -80.27258 | 5472 ft | 111 kts | 136° |
| 2026-04-18 19:24 | 34.88296 | -80.26519 | 5489 ft | 118 kts | 136° |
| 2026-04-18 19:25 | 34.87762 | -80.25723 | 5478 ft | 121 kts | 135° |
| 2026-04-18 19:25 | 34.87259 | -80.24947 | 5473 ft | 113 kts | 134° |
| 2026-04-18 19:25 | 34.86783 | -80.24210 | 5472 ft | 109 kts | 135° |
| 2026-04-18 19:25 | 34.86323 | -80.23490 | 5465 ft | 107 kts | 135° |
| 2026-04-18 19:26 | 34.85894 | -80.22759 | 5470 ft | 110 kts | 130° |
| 2026-04-18 19:26 | 34.85469 | -80.22001 | 5466 ft | 106 kts | 131° |
| 2026-04-18 19:26 | 34.85070 | -80.21275 | 5468 ft | 101 kts | 130° |
| 2026-04-18 19:26 | 34.84688 | -80.20575 | 5468 ft | 99 kts | 131° |
| 2026-04-18 19:27 | 34.84351 | -80.19855 | 5467 ft | 100 kts | 109° |
| 2026-04-18 19:27 | 34.84397 | -80.18998 | 5468 ft | 102 kts | 86° |
| 2026-04-18 19:27 | 34.84501 | -80.18125 | 5469 ft | 107 kts | 86° |
| 2026-04-18 19:27 | 34.84617 | -80.17214 | 5472 ft | 111 kts | 85° |
| 2026-04-18 19:28 | 34.84743 | -80.16253 | 5478 ft | 114 kts | 88° |
| 2026-04-18 19:28 | 34.84535 | -80.15384 | 5477 ft | 109 kts | 121° |
| 2026-04-18 19:28 | 34.84232 | -80.14522 | 5482 ft | 111 kts | 120° |
| 2026-04-18 19:28 | 34.83792 | -80.13764 | 5478 ft | 113 kts | 143° |
| 2026-04-18 19:29 | 34.83230 | -80.13095 | 5479 ft | 113 kts | 140° |
| 2026-04-18 19:29 | 34.82696 | -80.12403 | 5483 ft | 113 kts | 139° |
| 2026-04-18 19:29 | 34.82149 | -80.11661 | 5482 ft | 117 kts | 137° |
| 2026-04-18 19:29 | 34.81603 | -80.10908 | 5480 ft | 119 kts | 137° |
| 2026-04-18 19:30 | 34.81058 | -80.10146 | 5484 ft | 119 kts | 137° |
| 2026-04-18 19:30 | 34.80504 | -80.09370 | 5477 ft | 123 kts | 137° |
| 2026-04-18 19:30 | 34.79956 | -80.08596 | 5483 ft | 120 kts | 136° |
| 2026-04-18 19:30 | 34.79404 | -80.07822 | 5471 ft | 120 kts | 136° |
| 2026-04-18 19:31 | 34.78860 | -80.07059 | 5432 ft | 122 kts | 137° |
| 2026-04-18 19:31 | 34.78308 | -80.06283 | 5308 ft | 119 kts | 136° |
| 2026-04-18 19:31 | 34.77773 | -80.05530 | 5179 ft | 116 kts | 136° |
| 2026-04-18 19:31 | 34.77247 | -80.04790 | 5057 ft | 115 kts | 137° |
| 2026-04-18 19:32 | 34.76714 | -80.04046 | 4931 ft | 117 kts | 137° |
| 2026-04-18 19:32 | 34.76187 | -80.03303 | 4817 ft | 116 kts | 137° |
| 2026-04-18 19:32 | 34.75656 | -80.02560 | 4713 ft | 121 kts | 137° |
| 2026-04-18 19:32 | 34.75098 | -80.01778 | 4562 ft | 123 kts | 136° |
| 2026-04-18 19:33 | 34.74544 | -80.00998 | 4413 ft | 120 kts | 137° |
| 2026-04-18 19:33 | 34.74001 | -80.00237 | 4258 ft | 118 kts | 137° |
| 2026-04-18 19:33 | 34.73459 | -79.99477 | 4119 ft | 118 kts | 136° |
| 2026-04-18 19:33 | 34.72923 | -79.98725 | 3972 ft | 117 kts | 136° |
| 2026-04-18 19:34 | 34.72392 | -79.97980 | 3832 ft | 116 kts | 136° |
| 2026-04-18 19:34 | 34.71859 | -79.97233 | 3684 ft | 117 kts | 136° |
| 2026-04-18 19:34 | 34.71322 | -79.96484 | 3543 ft | 117 kts | 136° |
| 2026-04-18 19:34 | 34.70778 | -79.95722 | 3431 ft | 118 kts | 136° |
| 2026-04-18 19:35 | 34.70265 | -79.94997 | 3432 ft | 110 kts | 136° |
| 2026-04-18 19:35 | 34.69762 | -79.94297 | 3428 ft | 110 kts | 136° |
| 2026-04-18 19:35 | 34.69263 | -79.93598 | 3426 ft | 109 kts | 136° |
| 2026-04-18 19:35 | 34.68770 | -79.92905 | 3421 ft | 109 kts | 137° |
| 2026-04-18 19:36 | 34.68272 | -79.92208 | 3413 ft | 109 kts | 137° |
| 2026-04-18 19:36 | 34.67787 | -79.91528 | 3429 ft | 106 kts | 137° |
| 2026-04-18 19:36 | 34.67307 | -79.90854 | 3417 ft | 103 kts | 137° |
| 2026-04-18 19:36 | 34.66840 | -79.90203 | 3425 ft | 103 kts | 138° |
| 2026-04-18 19:37 | 34.66526 | -79.89765 | 3424 ft | 104 kts | 137° |
| 2026-04-18 19:37 | 34.66060 | -79.89112 | 3420 ft | 100 kts | 137° |
| 2026-04-18 19:37 | 34.65608 | -79.88480 | 3416 ft | 98 kts | 137° |
| 2026-04-18 19:37 | 34.65170 | -79.87867 | 3420 ft | 97 kts | 137° |
| 2026-04-18 19:38 | 34.64712 | -79.87227 | 3424 ft | 97 kts | 137° |
| 2026-04-18 19:38 | 34.64263 | -79.86603 | 3437 ft | 104 kts | 137° |
| 2026-04-18 19:38 | 34.63766 | -79.85913 | 3449 ft | 113 kts | 136° |
| 2026-04-18 19:38 | 34.63236 | -79.85173 | 3446 ft | 118 kts | 136° |
| 2026-04-18 19:39 | 34.62696 | -79.84417 | 3433 ft | 115 kts | 136° |
| 2026-04-18 19:39 | 34.62191 | -79.83706 | 3432 ft | 108 kts | 136° |
| 2026-04-18 19:39 | 34.61707 | -79.83032 | 3425 ft | 104 kts | 136° |
| 2026-04-18 19:39 | 34.61241 | -79.82379 | 3433 ft | 101 kts | 137° |
| 2026-04-18 19:40 | 34.60784 | -79.81743 | 3427 ft | 99 kts | 137° |
| 2026-04-18 19:40 | 34.60339 | -79.81120 | 3426 ft | 97 kts | 137° |
| 2026-04-18 19:40 | 34.59900 | -79.80509 | 3438 ft | 97 kts | 137° |
| 2026-04-18 19:40 | 34.59431 | -79.79860 | 3440 ft | 106 kts | 137° |
| 2026-04-18 19:41 | 34.58939 | -79.79174 | 3447 ft | 110 kts | 137° |
| 2026-04-18 19:41 | 34.58428 | -79.78460 | 3446 ft | 113 kts | 137° |
| 2026-04-18 19:41 | 34.57917 | -79.77748 | 3435 ft | 109 kts | 136° |
| 2026-04-18 19:41 | 34.57436 | -79.77074 | 3438 ft | 102 kts | 137° |
| 2026-04-18 19:42 | 34.56972 | -79.76426 | 3426 ft | 102 kts | 138° |
| 2026-04-18 19:42 | 34.56521 | -79.75802 | 3428 ft | 98 kts | 137° |
| 2026-04-18 19:42 | 34.56058 | -79.75156 | 3439 ft | 104 kts | 137° |
| 2026-04-18 19:42 | 34.55566 | -79.74474 | 3438 ft | 107 kts | 136° |
| 2026-04-18 19:43 | 34.55098 | -79.73820 | 3441 ft | 103 kts | 136° |
| 2026-04-18 19:43 | 34.54637 | -79.73175 | 3446 ft | 101 kts | 136° |
| 2026-04-18 19:43 | 34.54159 | -79.72513 | 3439 ft | 104 kts | 137° |
| 2026-04-18 19:43 | 34.53695 | -79.71865 | 3438 ft | 100 kts | 136° |
| 2026-04-18 19:44 | 34.53244 | -79.71238 | 3427 ft | 98 kts | 136° |
| 2026-04-18 19:44 | 34.52805 | -79.70626 | 3432 ft | 94 kts | 136° |
| 2026-04-18 19:44 | 34.51918 | -79.69397 | 3448 ft | 106 kts | 137° |
| 2026-04-18 19:45 | 34.51413 | -79.68698 | 3443 ft | 110 kts | 136° |
| 2026-04-18 19:45 | 34.50917 | -79.68005 | 3447 ft | 108 kts | 137° |
| 2026-04-18 19:45 | 34.50421 | -79.67314 | 3443 ft | 110 kts | 137° |
| 2026-04-18 19:45 | 34.49913 | -79.66606 | 3451 ft | 116 kts | 137° |
| 2026-04-18 19:46 | 34.49350 | -79.65834 | 3437 ft | 124 kts | 137° |
| 2026-04-18 19:46 | 34.48806 | -79.65073 | 3437 ft | 116 kts | 137° |
| 2026-04-18 19:46 | 34.48283 | -79.64342 | 3428 ft | 113 kts | 137° |
| 2026-04-18 19:46 | 34.47780 | -79.63643 | 3433 ft | 107 kts | 137° |
| 2026-04-18 19:47 | 34.47299 | -79.62978 | 3432 ft | 108 kts | 138° |
| 2026-04-18 19:47 | 34.46784 | -79.62263 | 3439 ft | 115 kts | 137° |
| 2026-04-18 19:47 | 34.46254 | -79.61531 | 3431 ft | 115 kts | 137° |
| 2026-04-18 19:47 | 34.45713 | -79.60786 | 3431 ft | 120 kts | 137° |
| 2026-04-18 19:48 | 34.45175 | -79.60034 | 3429 ft | 116 kts | 137° |
| 2026-04-18 19:48 | 34.44635 | -79.59288 | 3436 ft | 122 kts | 137° |
| 2026-04-18 19:48 | 34.44086 | -79.58525 | 3427 ft | 117 kts | 137° |
| 2026-04-18 19:48 | 34.43567 | -79.57802 | 3437 ft | 110 kts | 137° |
| 2026-04-18 19:49 | 34.43063 | -79.57104 | 3559 ft | 112 kts | 137° |
| 2026-04-18 19:49 | 34.42535 | -79.56377 | 3688 ft | 119 kts | 137° |
| 2026-04-18 19:49 | 34.42005 | -79.55637 | 3820 ft | 113 kts | 136° |
| 2026-04-18 19:49 | 34.41499 | -79.54935 | 3959 ft | 110 kts | 139° |
| 2026-04-18 19:50 | 34.40986 | -79.54227 | 4064 ft | 111 kts | 137° |
| 2026-04-18 19:50 | 34.40487 | -79.53533 | 4194 ft | 108 kts | 137° |
| 2026-04-18 19:50 | 34.39998 | -79.52855 | 4311 ft | 106 kts | 137° |
| 2026-04-18 19:50 | 34.39524 | -79.52198 | 4426 ft | 103 kts | 137° |
| 2026-04-18 19:51 | 34.39058 | -79.51554 | 4543 ft | 100 kts | 138° |
| 2026-04-18 19:51 | 34.38581 | -79.50905 | 4656 ft | 108 kts | 137° |
| 2026-04-18 19:51 | 34.38079 | -79.50205 | 4757 ft | 112 kts | 137° |
| 2026-04-18 19:51 | 34.37562 | -79.49488 | 4853 ft | 111 kts | 136° |
| 2026-04-18 19:52 | 34.37059 | -79.48790 | 4941 ft | 109 kts | 137° |
| 2026-04-18 19:52 | 34.36551 | -79.48093 | 5065 ft | 113 kts | 137° |
| 2026-04-18 19:52 | 34.36035 | -79.47380 | 5150 ft | 113 kts | 135° |
| 2026-04-18 19:52 | 34.35506 | -79.46644 | 5249 ft | 115 kts | 136° |
| 2026-04-18 19:53 | 34.34980 | -79.45921 | 5353 ft | 118 kts | 136° |
| 2026-04-18 19:53 | 34.34433 | -79.45168 | 5436 ft | 120 kts | 136° |
| 2026-04-18 19:53 | 34.33307 | -79.43615 | 5442 ft | 124 kts | 136° |
| 2026-04-18 19:54 | 34.32745 | -79.42838 | 5443 ft | 120 kts | 136° |
| 2026-04-18 19:54 | 34.32210 | -79.42098 | 5433 ft | 114 kts | 136° |
| 2026-04-18 19:54 | 34.31698 | -79.41392 | 5442 ft | 112 kts | 136° |
| 2026-04-18 19:54 | 34.31175 | -79.40674 | 5440 ft | 115 kts | 136° |
| 2026-04-18 19:55 | 34.30656 | -79.39956 | 5437 ft | 111 kts | 137° |
| 2026-04-18 19:55 | 34.30148 | -79.39257 | 5440 ft | 110 kts | 137° |
| 2026-04-18 19:55 | 34.29642 | -79.38558 | 5440 ft | 111 kts | 136° |
| 2026-04-18 19:55 | 34.29134 | -79.37858 | 5445 ft | 111 kts | 137° |
| 2026-04-18 19:56 | 34.28612 | -79.37141 | 5453 ft | 116 kts | 136° |
| 2026-04-18 19:56 | 34.28071 | -79.36398 | 5451 ft | 119 kts | 137° |
| 2026-04-18 19:56 | 34.27527 | -79.35650 | 5451 ft | 118 kts | 137° |
| 2026-04-18 19:56 | 34.26989 | -79.34907 | 5457 ft | 117 kts | 136° |
| 2026-04-18 19:57 | 34.26450 | -79.34163 | 5450 ft | 117 kts | 136° |
| 2026-04-18 19:57 | 34.25924 | -79.33437 | 5443 ft | 112 kts | 136° |
| 2026-04-18 19:57 | 34.25408 | -79.32729 | 5444 ft | 113 kts | 137° |
| 2026-04-18 19:57 | 34.24899 | -79.32027 | 5438 ft | 109 kts | 136° |
| 2026-04-18 19:58 | 34.24410 | -79.31353 | 5445 ft | 106 kts | 137° |
| 2026-04-18 19:58 | 34.23918 | -79.30679 | 5442 ft | 107 kts | 137° |
| 2026-04-18 19:58 | 34.23419 | -79.29993 | 5448 ft | 110 kts | 137° |
| 2026-04-18 19:58 | 34.22906 | -79.29289 | 5445 ft | 111 kts | 136° |
| 2026-04-18 19:59 | 34.22393 | -79.28583 | 5445 ft | 112 kts | 137° |
| 2026-04-18 19:59 | 34.21877 | -79.27873 | 5451 ft | 115 kts | 137° |
| 2026-04-18 19:59 | 34.21350 | -79.27151 | 5449 ft | 114 kts | 137° |
| 2026-04-18 19:59 | 34.20825 | -79.26428 | 5452 ft | 115 kts | 136° |
| 2026-04-18 20:00 | 34.20295 | -79.25703 | 5453 ft | 117 kts | 136° |
| 2026-04-18 20:00 | 34.19760 | -79.24967 | 5453 ft | 117 kts | 136° |
| 2026-04-18 20:00 | 34.19221 | -79.24227 | 5457 ft | 118 kts | 136° |
| 2026-04-18 20:00 | 34.18672 | -79.23475 | 5449 ft | 122 kts | 136° |
| 2026-04-18 20:01 | 34.18111 | -79.22706 | 5438 ft | 120 kts | 136° |
| 2026-04-18 20:01 | 34.17572 | -79.21964 | 5437 ft | 116 kts | 137° |
| 2026-04-18 20:01 | 34.17034 | -79.21226 | 5433 ft | 116 kts | 137° |
| 2026-04-18 20:01 | 34.16504 | -79.20498 | 5427 ft | 115 kts | 137° |
| 2026-04-18 20:02 | 34.15980 | -79.19781 | 5431 ft | 113 kts | 137° |
| 2026-04-18 20:02 | 34.15462 | -79.19069 | 5429 ft | 112 kts | 136° |
| 2026-04-18 20:02 | 34.14940 | -79.18356 | 5422 ft | 115 kts | 136° |
| 2026-04-18 20:02 | 34.14412 | -79.17632 | 5430 ft | 115 kts | 136° |
| 2026-04-18 20:03 | 34.13885 | -79.16910 | 5427 ft | 115 kts | 136° |
| 2026-04-18 20:03 | 34.13354 | -79.16184 | 5431 ft | 118 kts | 137° |
| 2026-04-18 20:03 | 34.12805 | -79.15432 | 5433 ft | 117 kts | 137° |
| 2026-04-18 20:03 | 34.12275 | -79.14704 | 5440 ft | 118 kts | 137° |
| 2026-04-18 20:04 | 34.11720 | -79.13949 | 5433 ft | 120 kts | 137° |
| 2026-04-18 20:04 | 34.11171 | -79.13197 | 5439 ft | 121 kts | 136° |
| 2026-04-18 20:04 | 34.10610 | -79.12427 | 5434 ft | 123 kts | 136° |
| 2026-04-18 20:04 | 34.10036 | -79.11644 | 5442 ft | 128 kts | 137° |
| 2026-04-18 20:05 | 34.09439 | -79.10830 | 5439 ft | 130 kts | 136° |
| 2026-04-18 20:05 | 34.08834 | -79.10003 | 5429 ft | 131 kts | 137° |
| 2026-04-18 20:05 | 34.08242 | -79.09191 | 5428 ft | 126 kts | 136° |
| 2026-04-18 20:05 | 34.07676 | -79.08414 | 5421 ft | 121 kts | 137° |
| 2026-04-18 20:06 | 34.07127 | -79.07663 | 5427 ft | 118 kts | 137° |
| 2026-04-18 20:06 | 34.06587 | -79.06926 | 5434 ft | 116 kts | 137° |
| 2026-04-18 20:06 | 34.06072 | -79.06225 | 5438 ft | 119 kts | 137° |
| 2026-04-18 20:06 | 34.05502 | -79.05449 | 5440 ft | 123 kts | 137° |
| 2026-04-18 20:07 | 34.04936 | -79.04674 | 5446 ft | 124 kts | 137° |
| 2026-04-18 20:07 | 34.04354 | -79.03882 | 5444 ft | 126 kts | 137° |
| 2026-04-18 20:07 | 34.03781 | -79.03098 | 5449 ft | 124 kts | 137° |
| 2026-04-18 20:07 | 34.03202 | -79.02311 | 5450 ft | 128 kts | 137° |
| 2026-04-18 20:08 | 34.02614 | -79.01510 | 5440 ft | 127 kts | 136° |
| 2026-04-18 20:08 | 34.02032 | -79.00715 | 5448 ft | 127 kts | 136° |
| 2026-04-18 20:08 | 34.01452 | -78.99920 | 5438 ft | 124 kts | 137° |
| 2026-04-18 20:08 | 34.00875 | -78.99136 | 5438 ft | 126 kts | 136° |
| 2026-04-18 20:09 | 34.00288 | -78.98336 | 5448 ft | 129 kts | 136° |
| 2026-04-18 20:09 | 33.99696 | -78.97530 | 5446 ft | 127 kts | 136° |
| 2026-04-18 20:09 | 33.99103 | -78.96722 | 5450 ft | 130 kts | 136° |
| 2026-04-18 20:09 | 33.98500 | -78.95901 | 5444 ft | 130 kts | 136° |
| 2026-04-18 20:10 | 33.97901 | -78.95086 | 5385 ft | 132 kts | 137° |
| 2026-04-18 20:10 | 33.97297 | -78.94269 | 5253 ft | 127 kts | 137° |
| 2026-04-18 20:10 | 33.96717 | -78.93476 | 5147 ft | 128 kts | 138° |
| 2026-04-18 20:10 | 33.96114 | -78.92661 | 5018 ft | 130 kts | 137° |
| 2026-04-18 20:11 | 33.95523 | -78.91854 | 4901 ft | 130 kts | 137° |
| 2026-04-18 20:11 | 33.94927 | -78.91043 | 4790 ft | 128 kts | 136° |
| 2026-04-18 20:11 | 33.94345 | -78.90247 | 4672 ft | 126 kts | 136° |
| 2026-04-18 20:11 | 33.93760 | -78.89453 | 4549 ft | 127 kts | 137° |
| 2026-04-18 20:12 | 33.93183 | -78.88672 | 4417 ft | 122 kts | 137° |
| 2026-04-18 20:12 | 33.92638 | -78.87927 | 4285 ft | 116 kts | 138° |
| 2026-04-18 20:12 | 33.92112 | -78.87213 | 4161 ft | 113 kts | 137° |
| 2026-04-18 20:12 | 33.91585 | -78.86501 | 4035 ft | 113 kts | 138° |
| 2026-04-18 20:13 | 33.91049 | -78.85772 | 3916 ft | 120 kts | 138° |
| 2026-04-18 20:13 | 33.90512 | -78.85047 | 3823 ft | 115 kts | 138° |
| 2026-04-18 20:13 | 33.89954 | -78.84290 | 3661 ft | 126 kts | 137° |
| 2026-04-18 20:13 | 33.89381 | -78.83512 | 3479 ft | 119 kts | 138° |
| 2026-04-18 20:14 | 33.88849 | -78.82786 | 3309 ft | 113 kts | 139° |
| 2026-04-18 20:14 | 33.88339 | -78.82095 | 3137 ft | 109 kts | 141° |
| 2026-04-18 20:14 | 33.87837 | -78.81416 | 2956 ft | 107 kts | 139° |
| 2026-04-18 20:14 | 33.87287 | -78.80858 | 2778 ft | 102 kts | 150° |
| 2026-04-18 20:15 | 33.86727 | -78.80338 | 2612 ft | 101 kts | 149° |
| 2026-04-18 20:15 | 33.86150 | -78.79813 | 2455 ft | 110 kts | 150° |
| 2026-04-18 20:15 | 33.85498 | -78.79262 | 2310 ft | 119 kts | 151° |
| 2026-04-18 20:15 | 33.84813 | -78.78666 | 2146 ft | 123 kts | 149° |
| 2026-04-18 20:16 | 33.84130 | -78.78069 | 1983 ft | 119 kts | 150° |
| 2026-04-18 20:16 | 33.83488 | -78.77505 | 1789 ft | 107 kts | 150° |
| 2026-04-18 20:16 | 33.82916 | -78.76981 | 1583 ft | 103 kts | 150° |
| 2026-04-18 20:16 | 33.82338 | -78.76492 | 1301 ft | 102 kts | 155° |
| 2026-04-18 20:17 | 33.81711 | -78.76123 | 1136 ft | 98 kts | 155° |
| 2026-04-18 20:17 | 33.81326 | -78.75440 | 997 ft | 104 kts | 111° |
| 2026-04-18 20:17 | 33.81173 | -78.74579 | 864 ft | 106 kts | 111° |
| 2026-04-18 20:17 | 33.81059 | -78.73707 | 827 ft | 112 kts | 82° |
| 2026-04-18 20:18 | 33.81550 | -78.72922 | 774 ft | 120 kts | 50° |
| 2026-04-18 20:18 | 33.82136 | -78.72271 | 816 ft | 112 kts | 42° |
| 2026-04-18 20:18 | 33.82747 | -78.71695 | 687 ft | 107 kts | 45° |
| 2026-04-18 20:18 | 33.83233 | -78.71104 | 636 ft | 91 kts | 72° |
| 2026-04-18 20:19 | 33.83155 | -78.70506 | 571 ft | 69 kts | 143° |
| 2026-04-18 20:19 | 33.82912 | -78.70270 | 537 ft | 59 kts | 176° |
| 2026-04-18 20:19 | 33.82518 | -78.70790 | 324 ft | 67 kts | 218° |
| 2026-04-18 20:19 | 33.82300 | -78.71046 | 270 ft | 63 kts | 214° |
| 2026-04-18 20:20 | 33.81990 | -78.71387 | 178 ft | 61 kts | 217° |
| 2026-04-18 20:20 | 33.81692 | -78.71755 | 56 ft | 61 kts | 217° |
| 2026-04-18 20:20 | 33.81434 | -78.72072 | 35 ft | 42 kts | 216° |
| 2026-04-18 20:20 | 33.81275 | -78.72256 | 33 ft | 17 kts | 228° |
| 2026-04-18 20:21 | 33.81208 | -78.72295 | 32 ft | 8 kts | 138° |
| 2026-04-18 20:21 | 33.81179 | -78.72266 | 33 ft | 4 kts | 156° |
| 2026-04-18 20:21 | 33.81155 | -78.72271 | 34 ft | 3 kts | 211° |
| 2026-04-18 20:21 | 33.81132 | -78.72276 | 34 ft | 3 kts | 165° |
| 2026-04-18 20:22 | 33.81112 | -78.72257 | 34 ft | 4 kts | 137° |
| 2026-04-18 20:22 | 33.81087 | -78.72228 | 34 ft | 6 kts | 131° |
| 2026-04-18 20:22 | 33.81083 | -78.72176 | 34 ft | 7 kts | 66° |
| 2026-04-18 20:22 | 33.81119 | -78.72118 | 34 ft | 10 kts | 57° |
| 2026-04-18 20:23 | 33.81146 | -78.72079 | 34 ft | 5 kts | 49° |
| 2026-04-18 20:23 | 33.81150 | -78.72075 | 34 ft | 0 kts | 51° |